createdAt,value
2022-10-31T00:04:53.205Z,14.10
2022-10-31T00:09:55.937Z,17.50
2022-10-31T00:14:58.608Z,14.90
2022-10-31T00:20:01.307Z,15.30
2022-10-31T00:25:04.310Z,18.60
2022-10-31T00:30:07.951Z,14.60
2022-10-31T00:35:10.739Z,14.40
2022-10-31T00:40:13.836Z,16.70
2022-10-31T00:45:16.784Z,16.60
2022-10-31T00:50:19.485Z,15.90
2022-10-31T00:55:22.186Z,16.20
2022-10-31T01:00:24.967Z,17.10
2022-10-31T01:05:28.090Z,18.90
2022-10-31T01:10:30.763Z,15.40
2022-10-31T01:15:33.467Z,15.20
2022-10-31T01:20:36.175Z,15.90
2022-10-31T01:25:38.903Z,18.40
2022-10-31T01:30:41.545Z,17.60
2022-10-31T01:35:44.259Z,11.60
2022-10-31T01:40:46.887Z,12.20
2022-10-31T01:45:55.131Z,10.30
2022-10-31T01:50:57.867Z,9.70
2022-10-31T01:56:01.405Z,14.60
2022-10-31T02:01:07.636Z,10.20
2022-10-31T02:06:21.871Z,15.90
2022-10-31T02:11:25.190Z,11.40
2022-10-31T02:16:27.871Z,9.50
2022-10-31T02:21:50.234Z,12.40
2022-10-31T02:27:03.731Z,14.10
2022-10-31T02:32:10.868Z,19.90
2022-10-31T02:37:20.549Z,19.60
2022-10-31T02:42:33.303Z,17.20
2022-10-31T02:47:39.695Z,18.70
2022-10-31T02:52:42.373Z,12.20
2022-10-31T02:57:45.172Z,10.60
2022-10-31T03:03:01.887Z,9.60
2022-10-31T03:08:10.954Z,8.80
2022-10-31T03:13:16.274Z,15.10
2022-10-31T03:18:28.103Z,17.20
2022-10-31T03:23:33.486Z,10.00
2022-10-31T03:28:43.070Z,11.90
2022-10-31T03:33:47.406Z,9.20
2022-10-31T03:38:51.306Z,10.30
2022-10-31T03:43:59.133Z,10.90
2022-10-31T03:49:02.864Z,10.00
2022-10-31T03:54:10.167Z,11.40
2022-10-31T03:59:21.772Z,14.00
2022-10-31T04:04:26.041Z,13.70
2022-10-31T04:09:30.871Z,12.80
2022-10-31T04:14:36.527Z,10.70
2022-10-31T04:19:39.171Z,10.60
2022-10-31T04:24:42.735Z,14.60
2022-10-31T04:29:48.207Z,12.50
2022-10-31T04:34:53.573Z,12.60
2022-10-31T04:39:56.234Z,12.10
2022-10-31T04:44:58.864Z,13.20
2022-10-31T04:50:03.142Z,8.90
2022-10-31T04:55:06.630Z,11.50
2022-10-31T05:00:11.116Z,11.30
2022-10-31T05:05:15.430Z,13.80
2022-10-31T05:10:21.171Z,12.20
2022-10-31T05:15:25.935Z,12.90
2022-10-31T05:20:30.985Z,12.70
2022-10-31T05:25:33.618Z,12.40
2022-10-31T05:30:36.672Z,12.00
2022-10-31T05:35:39.320Z,13.50
2022-10-31T05:40:42.221Z,12.20
2022-10-31T05:45:44.899Z,20.00
2022-10-31T05:50:49.327Z,17.50
2022-10-31T05:55:51.939Z,10.40
2022-10-31T06:00:55.028Z,12.90
2022-10-31T06:05:57.954Z,16.60
2022-10-31T06:11:00.942Z,11.90
2022-10-31T06:16:03.834Z,14.40
2022-10-31T06:21:06.441Z,12.60
2022-10-31T06:26:09.249Z,12.80
2022-10-31T06:31:11.859Z,17.30
2022-10-31T06:36:14.780Z,15.10
2022-10-31T06:41:17.605Z,15.90
2022-10-31T06:46:20.811Z,17.90
2022-10-31T06:51:23.436Z,14.90
2022-10-31T06:56:26.040Z,13.90
2022-10-31T07:01:28.903Z,11.70
2022-10-31T07:06:31.658Z,10.80
2022-10-31T07:11:34.331Z,10.20
2022-10-31T07:16:37.059Z,9.80
2022-10-31T07:21:39.685Z,8.90
2022-10-31T07:26:43.437Z,8.50
2022-10-31T07:31:47.440Z,9.70
2022-10-31T07:36:52.501Z,9.50
2022-10-31T07:41:55.265Z,9.90
2022-10-31T07:46:57.886Z,10.50
2022-10-31T07:52:00.593Z,9.90
2022-10-31T07:57:03.466Z,6.00
2022-10-31T08:02:06.306Z,7.00
2022-10-31T08:07:09.074Z,6.70
2022-10-31T08:12:11.974Z,8.50
2022-10-31T08:17:14.669Z,7.00
2022-10-31T08:22:17.404Z,7.70
2022-10-31T08:27:20.183Z,5.80
2022-10-31T08:32:22.885Z,7.10
2022-10-31T08:37:26.181Z,6.80
2022-10-31T08:42:28.888Z,6.10
2022-10-31T08:47:31.618Z,5.40
2022-10-31T08:53:02.873Z,5.50
2022-10-31T08:57:58.731Z,8.80
2022-10-31T09:03:05.390Z,5.50
2022-10-31T09:08:14.766Z,5.50
2022-10-31T09:13:21.445Z,6.10
2022-10-31T09:23:27.145Z,4.80
2022-10-31T09:28:29.946Z,6.20
2022-10-31T09:33:32.665Z,6.20
2022-10-31T09:38:35.311Z,6.50
2022-10-31T09:43:54.416Z,6.40
2022-10-31T09:49:22.561Z,5.50
2022-10-31T09:54:37.941Z,8.40
2022-10-31T09:59:42.981Z,5.50
2022-10-31T10:05:10.965Z,6.00
2022-10-31T10:10:26.779Z,6.70
2022-10-31T10:16:04.395Z,19.20
2022-10-31T10:21:40.704Z,8.30
2022-10-31T10:27:10.313Z,8.20
2022-10-31T10:32:29.187Z,6.50
2022-10-31T10:37:39.613Z,6.60
2022-10-31T10:43:10.689Z,5.70
2022-10-31T10:48:21.019Z,5.90
2022-10-31T10:54:10.304Z,6.10
2022-10-31T10:59:17.974Z,6.40
2022-10-31T11:04:31.383Z,7.10
2022-10-31T11:09:35.816Z,6.80
2022-10-31T11:15:01.358Z,7.50
2022-10-31T11:20:16.354Z,5.60
2022-10-31T11:25:26.630Z,7.40
2022-10-31T11:30:31.263Z,10.00
2022-10-31T11:35:34.530Z,9.20
2022-10-31T11:40:37.642Z,7.80
2022-10-31T11:45:40.386Z,7.80
2022-10-31T11:50:48.415Z,7.20
2022-10-31T11:56:04.726Z,7.50
2022-10-31T12:01:23.158Z,8.50
2022-10-31T12:06:32.860Z,7.60
2022-10-31T12:12:01.775Z,9.80
2022-10-31T12:17:26.221Z,9.50
2022-10-31T12:27:59.336Z,8.80
2022-10-31T12:33:26.902Z,9.50
2022-10-31T12:38:49.072Z,8.90
2022-10-31T12:44:15.230Z,12.20
2022-10-31T12:49:50.204Z,7.80
2022-10-31T12:55:38.678Z,11.20
2022-10-31T13:00:48.348Z,9.10
2022-10-31T13:05:57.798Z,13.10
2022-10-31T13:11:03.358Z,11.60
2022-10-31T13:16:15.206Z,10.60
2022-10-31T13:21:39.767Z,11.20
2022-10-31T13:26:51.377Z,14.50
2022-10-31T13:31:55.113Z,18.50
2022-10-31T13:37:07.220Z,15.70
2022-10-31T13:42:20.392Z,31.30
2022-10-31T13:47:25.103Z,30.60
2022-10-31T13:52:28.058Z,25.20
2022-10-31T13:57:39.920Z,17.70
2022-10-31T14:02:48.643Z,15.40
2022-10-31T14:07:54.138Z,14.60
2022-10-31T14:13:09.126Z,17.30
2022-10-31T14:18:30.872Z,17.80
2022-10-31T14:23:41.672Z,16.40
2022-10-31T14:28:45.305Z,18.20
2022-10-31T14:33:48.106Z,21.50
2022-10-31T14:39:17.204Z,24.60
2022-10-31T14:44:38.574Z,19.60
2022-10-31T14:50:07.711Z,26.20
2022-10-31T14:55:14.456Z,20.70
2022-10-31T15:00:22.214Z,27.80
2022-10-31T15:05:28.074Z,17.60
2022-10-31T15:10:34.536Z,18.80
2022-10-31T15:15:38.427Z,24.10
2022-10-31T15:20:45.675Z,24.20
2022-10-31T15:25:48.578Z,19.50
2022-10-31T15:30:59.033Z,16.70
2022-10-31T15:36:03.707Z,20.90
2022-10-31T15:41:29.441Z,21.40
2022-10-31T15:46:32.655Z,40.90
2022-10-31T15:51:35.931Z,28.00
2022-10-31T15:56:38.870Z,16.10
2022-10-31T16:01:41.656Z,18.60
2022-10-31T16:06:44.530Z,17.00
2022-10-31T16:11:47.777Z,13.10
2022-10-31T16:16:53.601Z,17.00
2022-10-31T16:22:09.782Z,18.00
2022-10-31T16:27:20.556Z,19.30
2022-10-31T16:32:28.389Z,18.60
2022-10-31T16:37:31.087Z,15.40
2022-10-31T16:42:33.829Z,19.00
2022-10-31T16:47:36.651Z,25.40
2022-10-31T16:52:53.831Z,39.60
2022-10-31T16:58:02.857Z,48.00
2022-10-31T17:03:05.817Z,64.10
2022-10-31T17:08:08.479Z,73.90
2022-10-31T17:13:19.268Z,58.60
2022-10-31T17:18:27.045Z,67.50
2022-10-31T17:23:30.609Z,66.50
2022-10-31T17:28:33.250Z,28.50
2022-10-31T17:33:35.903Z,26.60
2022-10-31T17:38:38.772Z,27.60
2022-10-31T17:43:42.434Z,26.00
2022-10-31T17:48:45.130Z,20.20
2022-10-31T17:53:48.139Z,29.10
2022-10-31T17:58:51.251Z,30.90
2022-10-31T18:03:53.925Z,33.10
2022-10-31T18:08:58.325Z,37.20
2022-10-31T18:14:01.808Z,35.30
2022-10-31T18:19:05.629Z,36.30
2022-10-31T18:24:09.447Z,34.50
2022-10-31T18:29:12.669Z,34.80
2022-10-31T18:34:16.190Z,45.50
2022-10-31T18:39:18.886Z,41.10
2022-10-31T18:44:22.099Z,40.40
2022-10-31T18:49:26.129Z,44.80
2022-10-31T18:54:28.829Z,38.10
2022-10-31T18:59:31.509Z,30.30
2022-10-31T19:04:34.152Z,36.50
2022-10-31T19:09:36.766Z,37.10
2022-10-31T19:14:39.730Z,39.10
2022-10-31T19:19:42.382Z,46.50
2022-10-31T19:24:45.015Z,33.60
2022-10-31T19:29:47.827Z,37.00
2022-10-31T19:34:50.524Z,40.60
2022-10-31T19:39:53.225Z,24.80
2022-10-31T19:44:56.436Z,47.40
2022-10-31T19:49:59.145Z,44.40
2022-10-31T19:55:03.012Z,48.60
2022-10-31T20:00:06.716Z,37.90
2022-10-31T20:05:09.467Z,49.90
2022-10-31T20:10:12.187Z,50.40
2022-10-31T20:15:15.126Z,45.70
2022-10-31T20:20:17.788Z,49.50
2022-10-31T20:25:20.797Z,44.40
2022-10-31T20:30:23.495Z,29.80
2022-10-31T20:35:26.190Z,39.20
2022-10-31T20:40:28.827Z,39.70
2022-10-31T20:45:32.741Z,42.20
2022-10-31T20:50:39.092Z,44.40
2022-10-31T20:55:41.908Z,46.60
2022-10-31T21:00:45.904Z,48.90
2022-10-31T21:06:07.976Z,45.70
2022-10-31T21:11:13.975Z,40.40
2022-10-31T21:16:22.915Z,49.50
2022-10-31T21:21:32.760Z,40.20
2022-10-31T21:26:40.095Z,37.50
2022-10-31T21:31:43.713Z,26.30
2022-10-31T21:36:46.405Z,23.00
2022-10-31T21:41:49.095Z,21.80
2022-10-31T21:46:51.951Z,21.90
2022-10-31T21:51:54.611Z,23.70
2022-10-31T21:56:59.075Z,24.20
2022-10-31T22:02:02.037Z,21.90
2022-10-31T22:07:04.861Z,17.10
2022-10-31T22:12:09.305Z,11.00
2022-10-31T22:17:11.975Z,18.50
2022-10-31T22:22:14.608Z,19.20
2022-10-31T22:27:17.252Z,18.50
2022-10-31T22:32:19.916Z,16.00
2022-10-31T22:37:22.594Z,19.50
2022-10-31T22:42:25.292Z,17.40
2022-10-31T22:47:27.987Z,14.60
2022-10-31T22:52:30.765Z,15.70
2022-10-31T22:57:33.500Z,10.40
2022-10-31T23:02:36.631Z,20.30
2022-10-31T23:07:40.860Z,22.00
2022-10-31T23:13:02.180Z,10.70
2022-10-31T23:18:10.756Z,16.10
2022-10-31T23:23:17.097Z,16.30
2022-10-31T23:28:20.292Z,14.60
2022-10-31T23:33:25.654Z,14.80
2022-10-31T23:38:30.509Z,12.80
2022-10-31T23:43:33.117Z,16.40
2022-10-31T23:48:35.832Z,15.60
2022-10-31T23:53:38.524Z,16.50
2022-10-31T23:58:41.594Z,14.30
